Time;durP1;ratioP1;P1;durP2;ratioP2;P2;SDS_P1;SDS_P2;PMS_P1;PMS_P2;Temp;Humidity;BMP_temperature;BMP_pressure;BME280_temperature;BME280_humidity;BME280_pressure;Samples;Min_cycle;Max_cycle;Signal;HPM_P1;HPM_P2
2020/12/03 00:05:43;;;;;;;17.00;8.55;;;2.70;99.90;;;;;;6749634;88;20220;-76
2020/12/03 00:15:44;;;;;;;17.12;8.80;;;2.70;99.90;;;;;;6751279;88;20217;-76
2020/12/03 00:25:45;;;;;;;19.12;8.73;;;2.70;99.90;;;;;;6747905;88;20180;-76
2020/12/03 00:35:48;;;;;;;19.02;8.38;;;2.80;99.90;;;;;;6747299;88;20192;-76
2020/12/03 00:55:52;;;;;;;19.20;8.75;;;2.90;99.90;;;;;;6754573;88;20336;-75
2020/12/03 01:05:53;;;;;;;19.15;8.73;;;2.80;99.90;;;;;;6731872;88;20191;-75
2020/12/03 01:15:56;;;;;;;19.40;8.85;;;2.80;99.90;;;;;;6728294;88;20305;-76
2020/12/03 01:25:57;;;;;;;16.85;8.43;;;2.80;99.90;;;;;;6738231;88;20192;-75
2020/12/03 01:35:57;;;;;;;23.02;9.63;;;2.80;99.90;;;;;;6735810;88;20209;-76
2020/12/03 01:46:01;;;;;;;23.70;9.38;;;2.70;99.90;;;;;;6739856;88;20216;-76
2020/12/03 01:56:05;;;;;;;22.62;10.00;;;2.80;99.90;;;;;;6734098;88;20836;-76
2020/12/03 02:06:06;;;;;;;21.42;9.48;;;2.90;99.90;;;;;;6736855;88;20327;-75
2020/12/03 02:16:06;;;;;;;20.83;8.95;;;2.90;99.90;;;;;;6741440;88;20264;-76
2020/12/03 02:26:07;;;;;;;20.80;9.90;;;2.90;99.90;;;;;;6737709;88;20216;-75
2020/12/03 02:36:13;;;;;;;21.30;10.32;;;2.90;99.90;;;;;;6742960;88;20197;-75
2020/12/03 02:46:14;;;;;;;20.55;9.50;;;3.00;99.90;;;;;;6738315;88;20537;-75
2020/12/03 02:56:14;;;;;;;20.15;9.43;;;3.00;99.90;;;;;;6741245;88;20206;-75
2020/12/03 03:06:15;;;;;;;19.65;9.60;;;3.10;99.90;;;;;;6740152;88;20181;-75
2020/12/03 03:16:16;;;;;;;18.73;9.23;;;3.10;99.90;;;;;;6738269;88;20231;-76
2020/12/03 03:26:17;;;;;;;18.67;8.25;;;3.20;99.90;;;;;;6737323;88;20522;-76
2020/12/03 03:36:17;;;;;;;19.02;8.23;;;3.20;99.90;;;;;;6734903;88;20277;-76
2020/12/03 03:46:18;;;;;;;18.67;8.30;;;3.30;99.90;;;;;;6731847;88;20678;-76
2020/12/03 03:56:19;;;;;;;19.30;8.63;;;3.40;99.90;;;;;;6736159;88;20205;-76
2020/12/03 04:06:19;;;;;;;21.27;10.10;;;3.40;99.90;;;;;;6736798;88;20194;-77
2020/12/03 04:16:20;;;;;;;22.87;10.75;;;3.20;99.90;;;;;;6725908;88;20595;-77
2020/12/03 04:26:21;;;;;;;22.83;8.82;;;3.20;99.90;;;;;;6725081;88;20216;-77
2020/12/03 04:36:21;;;;;;;21.12;10.13;;;3.10;99.90;;;;;;6725592;88;20496;-76
2020/12/03 04:46:43;;;;;;;22.73;10.07;;;3.10;99.90;;;;;;6740847;88;20227;-76
2020/12/03 04:57:04;;;;;;;21.12;9.35;;;3.10;99.90;;;;;;6725418;88;20333;-76
2020/12/03 05:07:08;;;;;;;21.37;8.43;;;3.00;99.90;;;;;;6736253;88;20202;-78
2020/12/03 05:17:27;;;;;;;24.08;9.65;;;3.00;99.90;;;;;;6740144;88;20695;-77
2020/12/03 05:27:32;;;;;;;17.25;8.35;;;3.00;99.90;;;;;;6726143;88;20178;-76
2020/12/03 05:37:34;;;;;;;21.42;8.30;;;3.00;99.90;;;;;;6721056;88;20230;-76
2020/12/03 05:47:39;;;;;;;19.62;8.90;;;3.00;99.90;;;;;;6719932;88;20345;-75
2020/12/03 05:57:42;;;;;;;15.50;7.85;;;3.00;99.90;;;;;;6727595;88;20208;-76
2020/12/03 06:08:05;;;;;;;17.15;7.68;;;3.10;99.90;;;;;;6748156;88;20223;-76
2020/12/03 06:18:39;;;;;;;18.25;8.02;;;3.00;99.90;;;;;;6750279;88;20189;-76
2020/12/03 06:29:26;;;;;;;15.82;7.53;;;3.00;99.90;;;;;;6712441;88;20329;-75
2020/12/03 06:39:54;;;;;;;17.87;7.87;;;3.00;99.90;;;;;;6712549;88;20207;-76
2020/12/03 06:50:02;;;;;;;15.65;7.15;;;3.00;99.90;;;;;;6711233;88;20205;-75
2020/12/03 07:00:48;;;;;;;14.95;7.20;;;3.00;99.90;;;;;;6728117;88;20221;-76
2020/12/03 07:11:05;;;;;;;14.05;7.15;;;3.10;99.90;;;;;;6737826;88;20226;-76
2020/12/03 07:21:30;;;;;;;14.32;6.78;;;3.10;99.90;;;;;;6728418;88;20197;-78
2020/12/03 07:31:36;;;;;;;12.23;5.60;;;3.20;99.90;;;;;;6723610;88;20205;-77
2020/12/03 07:41:55;;;;;;;13.53;6.23;;;3.20;99.90;;;;;;6718518;88;20339;-76
2020/12/03 07:52:35;;;;;;;14.00;6.60;;;3.10;99.90;;;;;;6710180;88;20247;-76
2020/12/03 08:02:52;;;;;;;14.35;6.37;;;3.30;99.90;;;;;;6738879;88;20239;-76
2020/12/03 08:13:20;;;;;;;17.63;7.03;;;3.30;99.90;;;;;;6732954;88;20664;-77
2020/12/03 08:23:20;;;;;;;13.20;6.70;;;3.50;99.90;;;;;;6738091;88;20270;-76
2020/12/03 08:33:28;;;;;;;14.98;7.00;;;3.50;99.90;;;;;;6737568;88;20215;-76
2020/12/03 08:43:30;;;;;;;15.70;7.87;;;3.60;99.90;;;;;;6711078;88;20188;-77
2020/12/03 08:53:32;;;;;;;15.00;6.87;;;3.60;99.90;;;;;;6742009;88;20227;-77
2020/12/03 09:03:34;;;;;;;17.33;7.65;;;3.70;99.90;;;;;;6737581;88;20235;-76
2020/12/03 09:13:35;;;;;;;15.15;7.12;;;3.60;99.90;;;;;;6726094;88;20203;-77
2020/12/03 09:23:36;;;;;;;17.20;8.55;;;3.70;99.90;;;;;;6724913;88;20252;-76
2020/12/03 09:33:38;;;;;;;16.40;7.75;;;3.80;99.90;;;;;;6716703;88;20194;-76
2020/12/03 09:43:40;;;;;;;14.95;7.18;;;3.90;99.90;;;;;;6721002;88;20244;-76
2020/12/03 09:53:41;;;;;;;14.57;7.40;;;3.90;99.90;;;;;;6721379;88;20223;-76
2020/12/03 10:04:11;;;;;;;17.58;8.20;;;4.00;99.90;;;;;;6728958;88;20182;-76
2020/12/03 10:14:51;;;;;;;12.65;5.97;;;4.10;99.90;;;;;;6723607;88;20704;-75
2020/12/03 10:25:02;;;;;;;12.13;6.30;;;4.20;99.90;;;;;;6724759;88;20240;-76
2020/12/03 10:35:04;;;;;;;13.85;6.85;;;4.30;99.90;;;;;;6727954;88;20327;-76
2020/12/03 10:45:11;;;;;;;12.35;6.30;;;4.50;99.90;;;;;;6724194;88;20197;-77
2020/12/03 10:55:16;;;;;;;11.45;5.70;;;4.70;99.90;;;;;;6732603;88;20279;-75
2020/12/03 11:05:17;;;;;;;13.85;6.90;;;4.60;99.90;;;;;;6739721;88;20173;-76
2020/12/03 11:15:22;;;;;;;19.52;8.48;;;4.30;99.90;;;;;;6722208;88;20231;-77
2020/12/03 11:25:27;;;;;;;16.05;6.95;;;4.30;99.90;;;;;;6718251;88;20221;-77
2020/12/03 11:35:33;;;;;;;16.33;7.93;;;4.30;99.90;;;;;;6735425;88;20185;-78
2020/12/03 11:55:53;;;;;;;12.30;6.43;;;4.30;99.90;;;;;;6725933;88;20519;-78
2020/12/03 12:06:06;;;;;;;10.68;5.47;;;4.50;99.90;;;;;;6724805;88;20237;-77
2020/12/03 12:16:10;;;;;;;13.27;7.00;;;4.80;99.90;;;;;;6726429;88;20522;-77
2020/12/03 12:26:11;;;;;;;12.27;6.12;;;4.70;99.90;;;;;;6725712;88;20719;-77
2020/12/03 12:36:11;;;;;;;10.57;5.65;;;4.90;99.90;;;;;;6724673;88;20193;-77
2020/12/03 12:46:12;;;;;;;11.15;5.72;;;5.10;99.90;;;;;;6727159;88;20231;-77
2020/12/03 12:56:13;;;;;;;11.95;6.05;;;5.10;99.90;;;;;;6741038;88;20213;-77
2020/12/03 13:06:13;;;;;;;11.77;6.35;;;5.10;99.90;;;;;;6729050;88;20229;-77
2020/12/03 13:16:14;;;;;;;13.77;7.07;;;5.00;99.90;;;;;;6728164;88;21293;-77
2020/12/03 13:26:17;;;;;;;10.18;6.10;;;5.00;99.90;;;;;;6714082;88;20190;-77
2020/12/03 13:36:21;;;;;;;10.05;5.25;;;5.10;99.90;;;;;;6734737;88;20497;-77
2020/12/03 13:46:21;;;;;;;9.20;5.15;;;5.20;99.90;;;;;;6737845;88;20641;-75
2020/12/03 13:56:22;;;;;;;7.05;3.95;;;5.30;99.90;;;;;;6742213;88;20283;-76
2020/12/03 14:06:22;;;;;;;7.80;3.90;;;5.20;99.90;;;;;;6742841;88;20333;-76
2020/12/03 14:16:23;;;;;;;9.18;4.75;;;5.10;99.90;;;;;;6729065;88;21074;-76
2020/12/03 14:26:23;;;;;;;8.43;4.50;;;5.10;99.90;;;;;;6727218;88;20745;-76
2020/12/03 14:36:24;;;;;;;9.63;5.20;;;5.10;99.90;;;;;;6729146;88;20527;-79
2020/12/03 14:46:25;;;;;;;9.35;4.95;;;5.00;99.90;;;;;;6725491;88;20222;-76
2020/12/03 14:56:26;;;;;;;8.98;4.37;;;5.00;99.90;;;;;;6721403;88;20219;-76
2020/12/03 15:06:26;;;;;;;13.27;5.57;;;4.90;99.90;;;;;;6737522;88;20180;-76
2020/12/03 15:16:27;;;;;;;12.05;6.07;;;4.80;99.90;;;;;;6740336;88;20216;-76
2020/12/03 15:26:28;;;;;;;18.08;8.57;;;4.50;99.90;;;;;;6723985;88;20182;-76
2020/12/03 15:36:53;;;;;;;13.02;6.55;;;4.30;99.90;;;;;;6733865;88;21045;-76
2020/12/03 15:46:53;;;;;;;15.07;5.32;;;4.30;99.90;;;;;;6728374;88;20542;-76
2020/12/03 15:56:54;;;;;;;12.82;5.30;;;4.20;99.90;;;;;;6725364;88;20243;-76
2020/12/03 16:06:56;;;;;;;13.40;6.35;;;4.20;99.90;;;;;;6743570;88;20215;-76
2020/12/03 16:16:57;;;;;;;9.27;5.55;;;4.20;99.90;;;;;;6733456;88;20193;-76
2020/12/03 16:26:57;;;;;;;7.53;3.95;;;4.10;99.90;;;;;;6728884;88;20195;-75
2020/12/03 16:37:02;;;;;;;12.60;5.83;;;4.20;99.90;;;;;;6714058;88;20678;-74
2020/12/03 16:47:03;;;;;;;7.80;4.25;;;4.30;99.90;;;;;;6723721;88;21046;-75
2020/12/03 16:57:04;;;;;;;10.50;5.35;;;4.40;99.90;;;;;;6718441;88;20218;-74
2020/12/03 17:07:05;;;;;;;11.07;6.15;;;4.40;99.90;;;;;;6719019;88;20236;-75
2020/12/03 17:17:05;;;;;;;9.68;5.40;;;4.50;99.90;;;;;;6722267;88;20207;-75
2020/12/03 17:27:06;;;;;;;7.90;4.22;;;4.50;99.90;;;;;;6720577;88;20194;-74
2020/12/03 17:37:07;;;;;;;7.95;3.87;;;4.50;99.90;;;;;;6716219;88;20274;-73
2020/12/03 17:47:07;;;;;;;7.85;3.85;;;4.50;99.90;;;;;;6719402;88;20186;-73
2020/12/03 17:57:08;;;;;;;9.73;5.35;;;4.40;99.90;;;;;;6720569;88;20989;-76
2020/12/03 18:07:08;;;;;;;8.25;3.72;;;4.50;99.90;;;;;;6729757;88;20190;-76
2020/12/03 18:17:09;;;;;;;9.65;5.37;;;4.50;99.90;;;;;;6719361;88;20300;-76
2020/12/03 18:27:09;;;;;;;8.88;4.90;;;4.50;99.90;;;;;;6718988;88;20243;-73
2020/12/03 18:37:14;;;;;;;9.23;3.92;;;4.50;99.90;;;;;;6719725;88;20240;-75
2020/12/03 18:47:14;;;;;;;6.28;4.12;;;4.40;99.90;;;;;;6717681;88;20185;-75
2020/12/03 18:57:15;;;;;;;6.75;3.35;;;4.50;99.90;;;;;;6715537;88;20358;-75
2020/12/03 19:07:17;;;;;;;8.80;4.62;;;4.50;99.90;;;;;;6732415;88;20487;-73
2020/12/03 19:17:17;;;;;;;6.68;4.20;;;4.60;99.90;;;;;;6719833;88;20251;-75
2020/12/03 19:27:18;;;;;;;7.85;3.85;;;4.60;99.90;;;;;;6727917;88;20293;-75
2020/12/03 19:37:18;;;;;;;8.02;3.75;;;4.70;99.90;;;;;;6717927;88;20226;-75
2020/12/03 19:47:19;;;;;;;5.47;3.05;;;4.60;99.90;;;;;;6714779;88;24158;-75
2020/12/03 19:57:20;;;;;;;8.75;4.60;;;4.60;99.90;;;;;;6711745;88;20328;-73
2020/12/03 20:07:20;;;;;;;8.38;4.18;;;4.60;99.90;;;;;;6712419;88;20748;-73
2020/12/03 20:17:21;;;;;;;8.23;3.35;;;4.50;99.90;;;;;;6714149;88;20966;-73
2020/12/03 20:27:22;;;;;;;7.93;3.85;;;4.60;99.90;;;;;;6715704;88;20216;-73
2020/12/03 20:37:27;;;;;;;7.53;3.87;;;4.60;99.90;;;;;;6723243;88;20193;-74
2020/12/03 20:47:28;;;;;;;8.95;4.62;;;4.50;99.90;;;;;;6718878;88;20626;-73
2020/12/03 20:57:29;;;;;;;9.67;5.03;;;4.40;99.90;;;;;;6717867;88;20237;-74
2020/12/03 21:07:31;;;;;;;9.13;4.68;;;4.40;99.90;;;;;;6717467;88;20495;-74
2020/12/03 21:17:31;;;;;;;8.18;4.05;;;4.30;99.90;;;;;;6712509;88;20203;-75
2020/12/03 21:27:32;;;;;;;7.90;4.22;;;4.30;99.90;;;;;;6714463;88;20309;-75
2020/12/03 21:37:32;;;;;;;4.97;2.83;;;4.20;99.90;;;;;;6720515;88;20275;-73
2020/12/03 21:47:33;;;;;;;7.35;3.67;;;4.20;99.90;;;;;;6722019;88;20193;-74
2020/12/03 21:57:35;;;;;;;4.87;2.75;;;4.20;99.90;;;;;;6718957;88;20743;-76
2020/12/03 22:07:35;;;;;;;8.55;4.65;;;4.10;99.90;;;;;;6727668;88;20200;-76
2020/12/03 22:17:36;;;;;;;6.37;3.58;;;4.00;99.90;;;;;;6730706;88;20194;-76
2020/12/03 22:27:36;;;;;;;11.18;4.68;;;4.00;99.90;;;;;;6722797;88;20174;-76
2020/12/03 22:37:37;;;;;;;9.23;4.60;;;3.90;99.90;;;;;;6720453;88;20174;-75
2020/12/03 22:47:40;;;;;;;6.80;3.83;;;3.80;99.90;;;;;;6719308;88;20205;-76
2020/12/03 22:57:41;;;;;;;7.28;3.90;;;3.80;99.90;;;;;;6716965;88;20190;-75
2020/12/03 23:07:41;;;;;;;5.72;3.28;;;3.70;99.90;;;;;;6718446;88;20239;-74
2020/12/03 23:17:42;;;;;;;7.97;4.18;;;3.60;99.90;;;;;;6718105;88;20206;-74
2020/12/03 23:27:43;;;;;;;9.40;4.47;;;3.60;99.90;;;;;;6718163;88;20181;-76
2020/12/03 23:37:43;;;;;;;6.85;4.07;;;3.60;99.90;;;;;;6723027;88;20394;-77
2020/12/03 23:47:44;;;;;;;9.30;4.55;;;3.60;99.90;;;;;;6716110;88;20249;-76
2020/12/03 23:57:45;;;;;;;7.50;4.28;;;3.60;99.90;;;;;;6721379;88;20235;-78
